createdAt,value
2023-05-23T00:01:08.060Z,6.13
2023-05-23T00:03:37.516Z,5.68
2023-05-23T00:06:06.855Z,6.43
2023-05-23T00:08:35.972Z,5.60
2023-05-23T00:11:02.467Z,6.53
2023-05-23T00:13:28.974Z,5.82
2023-05-23T00:15:57.615Z,6.72
2023-05-23T00:18:26.473Z,6.55
2023-05-23T00:20:53.037Z,6.28
2023-05-23T00:23:20.849Z,6.07
2023-05-23T00:28:25.880Z,6.38
2023-05-23T00:30:54.822Z,6.85
2023-05-23T00:33:22.250Z,6.43
2023-05-23T00:35:49.250Z,6.30
2023-05-23T00:38:18.630Z,6.00
2023-05-23T00:40:48.221Z,5.53
2023-05-23T00:43:14.869Z,5.90
2023-05-23T00:45:41.565Z,5.15
2023-05-23T00:48:09.068Z,5.18
2023-05-23T00:50:36.762Z,5.20
2023-05-23T00:53:05.776Z,4.32
2023-05-23T00:55:35.233Z,4.28
2023-05-23T00:58:01.880Z,4.43
2023-05-23T01:00:28.985Z,4.70
2023-05-23T01:02:55.796Z,4.85
2023-05-23T01:05:26.918Z,3.72
2023-05-23T01:07:56.996Z,4.35
2023-05-23T01:10:26.814Z,4.32
2023-05-23T01:13:01.621Z,4.47
2023-05-23T01:15:47.976Z,3.97
2023-05-23T01:18:24.431Z,4.63
2023-05-23T01:20:56.133Z,4.72
2023-05-23T01:23:28.454Z,4.65
2023-05-23T01:25:59.454Z,4.40
2023-05-23T01:28:32.137Z,4.75
2023-05-23T01:31:02.287Z,4.63
2023-05-23T01:33:29.085Z,4.18
2023-05-23T01:36:02.173Z,4.82
2023-05-23T01:38:28.660Z,4.40
2023-05-23T01:40:58.249Z,4.38
2023-05-23T01:43:27.502Z,4.68
2023-05-23T01:45:58.732Z,4.80
2023-05-23T01:48:28.683Z,4.85
2023-05-23T01:50:59.079Z,4.50
2023-05-23T01:53:26.665Z,5.03
2023-05-23T01:55:53.972Z,5.07
2023-05-23T01:58:23.208Z,5.65
2023-05-23T02:00:49.932Z,6.32
2023-05-23T02:03:16.725Z,6.38
2023-05-23T02:05:46.058Z,6.50
2023-05-23T02:08:14.882Z,6.30
2023-05-23T02:10:48.804Z,5.88
2023-05-23T02:13:15.349Z,5.68
2023-05-23T02:15:42.115Z,5.57
2023-05-23T02:18:08.974Z,6.05
2023-05-23T02:20:35.645Z,5.47
2023-05-23T02:23:04.326Z,5.57
2023-05-23T02:25:30.866Z,5.50
2023-05-23T02:28:00.004Z,5.18
2023-05-23T02:30:31.416Z,6.07
2023-05-23T02:33:05.364Z,5.97
2023-05-23T02:35:36.653Z,5.13
2023-05-23T02:38:03.214Z,4.97
2023-05-23T02:40:29.761Z,4.50
2023-05-23T02:42:58.539Z,5.07
2023-05-23T02:45:29.663Z,4.43
2023-05-23T02:47:56.250Z,4.47
2023-05-23T02:50:25.367Z,4.43
2023-05-23T02:52:51.909Z,4.47
2023-05-23T02:55:20.763Z,4.60
2023-05-23T02:57:47.229Z,5.13
2023-05-23T03:00:15.630Z,4.65
2023-05-23T03:02:42.973Z,4.57
2023-05-23T03:05:11.906Z,4.68
2023-05-23T03:07:40.845Z,5.25
2023-05-23T03:10:08.104Z,5.07
2023-05-23T03:12:34.652Z,5.28
2023-05-23T03:15:03.479Z,5.25
2023-05-23T03:17:29.952Z,5.28
2023-05-23T03:19:59.014Z,5.75
2023-05-23T03:22:30.362Z,5.10
2023-05-23T03:24:59.124Z,5.65
2023-05-23T03:27:30.478Z,5.18
2023-05-23T03:29:56.963Z,5.55
2023-05-23T03:32:23.431Z,6.03
2023-05-23T03:34:49.899Z,6.70
2023-05-23T03:37:18.673Z,6.40
2023-05-23T03:39:47.494Z,6.07
2023-05-23T03:42:16.321Z,6.82
2023-05-23T03:44:45.422Z,6.43
2023-05-23T03:47:12.049Z,6.43
2023-05-23T03:49:40.968Z,6.28
2023-05-23T03:52:07.917Z,5.95
2023-05-23T03:54:34.397Z,6.45
2023-05-23T03:57:03.570Z,7.10
2023-05-23T03:59:32.403Z,7.47
2023-05-23T04:02:01.307Z,6.07
2023-05-23T04:04:31.334Z,5.78
2023-05-23T04:06:59.023Z,7.30
2023-05-23T04:09:27.947Z,5.90
2023-05-23T04:11:54.424Z,6.03
2023-05-23T04:14:23.176Z,6.47
2023-05-23T04:16:49.757Z,6.70
2023-05-23T04:19:18.420Z,6.13
2023-05-23T04:21:44.957Z,6.07
2023-05-23T04:24:11.514Z,5.47
2023-05-23T04:26:37.973Z,5.47
2023-05-23T04:29:06.855Z,5.28
2023-05-23T04:31:34.288Z,4.40
2023-05-23T04:34:02.446Z,5.15
2023-05-23T04:38:58.010Z,4.32
2023-05-23T04:41:24.597Z,4.75
2023-05-23T04:43:54.705Z,3.88
2023-05-23T04:46:27.080Z,4.57
2023-05-23T04:48:55.083Z,3.95
2023-05-23T04:53:52.603Z,3.70
2023-05-23T04:56:21.790Z,3.60
2023-05-23T04:58:50.764Z,3.20
2023-05-23T05:01:20.674Z,3.35
2023-05-23T05:03:48.775Z,3.35
2023-05-23T05:06:18.387Z,3.50
2023-05-23T05:08:45.354Z,3.75
2023-05-23T05:11:13.955Z,3.72
2023-05-23T05:13:40.550Z,3.88
2023-05-23T05:16:07.674Z,3.80
2023-05-23T05:18:37.974Z,3.50
2023-05-23T05:21:08.184Z,3.67
2023-05-23T05:23:36.225Z,3.40
2023-05-23T05:28:32.124Z,3.40
2023-05-23T05:30:58.641Z,3.47
2023-05-23T05:33:25.209Z,3.10
2023-05-23T05:35:52.075Z,3.13
2023-05-23T05:38:18.686Z,3.22
2023-05-23T05:40:52.569Z,4.18
2023-05-23T05:43:23.988Z,3.50
2023-05-23T05:45:50.675Z,3.40
2023-05-23T05:48:19.468Z,3.45
2023-05-23T05:50:48.282Z,3.55
2023-05-23T05:53:14.861Z,3.40
2023-05-23T05:55:41.443Z,3.50
2023-05-23T05:58:07.928Z,3.58
2023-05-23T06:00:42.569Z,3.42
2023-05-23T06:03:09.372Z,3.92
2023-05-23T06:05:39.659Z,4.22
2023-05-23T06:08:08.478Z,3.92
2023-05-23T06:10:37.309Z,4.15
2023-05-23T06:13:06.335Z,4.20
2023-05-23T06:15:32.860Z,4.25
2023-05-23T06:18:01.665Z,4.32
2023-05-23T06:20:28.784Z,3.70
2023-05-23T06:22:55.370Z,4.50
2023-05-23T06:25:27.027Z,3.88
2023-05-23T06:27:56.034Z,4.72
2023-05-23T06:30:25.024Z,4.07
2023-05-23T06:32:51.562Z,4.00
2023-05-23T06:35:18.083Z,4.10
2023-05-23T06:37:46.841Z,4.32
2023-05-23T06:40:18.151Z,4.30
2023-05-23T06:42:49.447Z,3.88
2023-05-23T06:45:20.756Z,3.85
2023-05-23T06:47:49.453Z,3.47
2023-05-23T06:50:19.843Z,3.35
2023-05-23T06:52:51.131Z,3.45
2023-05-23T06:55:19.428Z,3.13
2023-05-23T06:57:46.846Z,3.53
2023-05-23T07:00:16.067Z,4.05
2023-05-23T07:02:45.853Z,2.67
2023-05-23T07:05:14.753Z,3.10
2023-05-23T07:07:43.761Z,3.83
2023-05-23T07:10:13.764Z,2.80
2023-05-23T07:12:40.391Z,3.10
2023-05-23T07:15:13.565Z,2.53
2023-05-23T07:17:42.337Z,2.78
2023-05-23T07:20:11.572Z,2.92
2023-05-23T07:22:40.409Z,2.33
2023-05-23T07:25:12.753Z,2.67
2023-05-23T07:27:44.038Z,2.90
2023-05-23T07:30:13.630Z,2.42
2023-05-23T07:32:40.181Z,2.50
2023-05-23T07:35:07.080Z,3.10
2023-05-23T07:37:33.805Z,2.42
2023-05-23T07:40:04.677Z,2.30
2023-05-23T07:42:31.226Z,2.67
2023-05-23T07:45:00.095Z,2.95
2023-05-23T07:47:29.181Z,3.13
2023-05-23T07:49:59.044Z,2.30
2023-05-23T07:52:27.788Z,2.80
2023-05-23T07:54:54.307Z,3.42
2023-05-23T07:57:25.911Z,3.08
2023-05-23T07:59:53.560Z,2.78
2023-05-23T08:02:23.144Z,2.42
2023-05-23T08:04:53.389Z,2.80
2023-05-23T08:07:19.881Z,2.88
2023-05-23T08:09:49.114Z,3.75
2023-05-23T08:12:17.924Z,2.28
2023-05-23T08:14:51.899Z,3.20
2023-05-23T08:17:19.176Z,2.60
2023-05-23T08:19:50.855Z,4.22
2023-05-23T08:22:19.999Z,2.42
2023-05-23T08:24:46.505Z,2.35
2023-05-23T08:27:15.611Z,3.08
2023-05-23T08:29:44.392Z,2.33
2023-05-23T08:32:15.929Z,2.10
2023-05-23T08:34:45.197Z,2.72
2023-05-23T08:37:11.754Z,2.97
2023-05-23T08:39:38.298Z,2.60
2023-05-23T08:42:05.187Z,2.60
2023-05-23T08:44:31.780Z,2.35
2023-05-23T08:47:07.764Z,2.53
2023-05-23T08:49:37.804Z,2.80
2023-05-23T08:52:11.479Z,2.60
2023-05-23T08:54:45.043Z,2.33
2023-05-23T08:57:14.378Z,2.63
2023-05-23T08:59:41.480Z,2.47
2023-05-23T09:02:13.191Z,3.05
2023-05-23T09:04:43.111Z,2.72
2023-05-23T09:07:15.717Z,2.50
2023-05-23T09:09:42.728Z,2.25
2023-05-23T09:12:10.249Z,3.03
2023-05-23T09:14:37.481Z,2.25
2023-05-23T09:17:04.872Z,2.45
2023-05-23T09:19:31.709Z,2.42
2023-05-23T09:22:01.030Z,2.92
2023-05-23T09:24:35.786Z,2.53
2023-05-23T09:27:03.167Z,2.58
2023-05-23T09:29:30.786Z,2.85
2023-05-23T09:32:15.912Z,2.67
2023-05-23T09:35:07.097Z,2.95
2023-05-23T09:37:39.523Z,2.97
2023-05-23T09:40:14.054Z,2.53
2023-05-23T09:42:45.332Z,2.55
2023-05-23T09:45:16.189Z,3.00
2023-05-23T09:47:52.905Z,2.58
2023-05-23T09:50:20.877Z,3.23
2023-05-23T09:52:48.098Z,3.17
2023-05-23T09:55:17.065Z,2.70
2023-05-23T09:57:44.738Z,2.88
2023-05-23T10:00:14.597Z,3.20
2023-05-23T10:03:12.444Z,3.05
2023-05-23T10:05:41.537Z,3.28
2023-05-23T10:08:12.106Z,2.58
2023-05-23T10:10:58.608Z,2.53
2023-05-23T10:13:29.060Z,2.97
2023-05-23T10:16:20.845Z,2.40
2023-05-23T10:18:54.854Z,2.70
2023-05-23T10:21:32.254Z,2.67
2023-05-23T10:24:04.346Z,2.90
2023-05-23T10:26:33.262Z,2.50
2023-05-23T10:29:02.842Z,2.63
2023-05-23T10:31:30.131Z,2.50
2023-05-23T10:34:09.234Z,2.42
2023-05-23T10:36:57.207Z,2.40
2023-05-23T10:39:38.377Z,2.97
2023-05-23T10:42:17.326Z,2.78
2023-05-23T10:44:46.220Z,3.00
2023-05-23T10:47:27.781Z,2.97
2023-05-23T10:49:57.818Z,2.92
2023-05-23T10:52:28.272Z,3.03
2023-05-23T10:54:59.728Z,2.60
2023-05-23T10:57:29.575Z,3.05
2023-05-23T11:00:01.757Z,2.58
2023-05-23T11:02:29.569Z,3.13
2023-05-23T11:07:43.548Z,2.28
2023-05-23T11:10:11.492Z,2.45
2023-05-23T11:12:46.632Z,2.60
2023-05-23T11:15:23.965Z,2.78
2023-05-23T11:17:57.830Z,2.65
2023-05-23T11:20:28.476Z,2.35
2023-05-23T11:23:00.524Z,3.00
2023-05-23T11:25:49.201Z,2.35
2023-05-23T11:28:17.329Z,2.80
2023-05-23T11:30:44.456Z,2.47
2023-05-23T11:33:16.576Z,2.25
2023-05-23T11:35:47.908Z,2.83
2023-05-23T11:38:16.661Z,2.88
2023-05-23T11:40:46.659Z,2.80
2023-05-23T11:43:15.830Z,2.53
2023-05-23T11:45:46.982Z,2.97
2023-05-23T11:48:17.727Z,2.40
2023-05-23T11:50:54.372Z,2.53
2023-05-23T11:53:23.055Z,2.65
2023-05-23T11:55:57.609Z,2.50
2023-05-23T11:58:32.098Z,2.75
2023-05-23T12:01:11.759Z,2.47
2023-05-23T12:03:50.132Z,2.10
2023-05-23T12:06:24.847Z,1.55
2023-05-23T12:09:02.052Z,2.63
2023-05-23T12:11:34.680Z,2.45
2023-05-23T12:14:03.259Z,2.40
2023-05-23T12:16:31.915Z,2.72
2023-05-23T12:18:59.302Z,1.75
2023-05-23T12:21:27.001Z,2.05
2023-05-23T12:23:56.234Z,2.15
2023-05-23T12:26:23.150Z,2.00
2023-05-23T12:28:49.904Z,1.87
2023-05-23T12:31:17.303Z,2.75
2023-05-23T12:33:45.202Z,2.53
2023-05-23T12:36:12.660Z,2.92
2023-05-23T12:38:40.933Z,1.92
2023-05-23T12:41:11.427Z,2.83
2023-05-23T12:43:41.342Z,2.55
2023-05-23T12:46:08.275Z,2.72
2023-05-23T12:48:37.178Z,2.47
2023-05-23T12:51:06.713Z,2.17
2023-05-23T12:53:33.295Z,2.47
2023-05-23T12:56:00.514Z,2.05
2023-05-23T12:58:29.034Z,2.45
2023-05-23T13:00:56.973Z,2.63
2023-05-23T13:03:28.380Z,1.83
2023-05-23T13:05:57.499Z,2.13
2023-05-23T13:08:25.216Z,1.92
2023-05-23T13:13:21.015Z,2.20
2023-05-23T13:15:51.651Z,2.50
2023-05-23T13:18:18.610Z,2.45
2023-05-23T13:20:47.540Z,2.28
2023-05-23T13:23:14.237Z,2.80
2023-05-23T13:25:41.329Z,2.53
2023-05-23T13:28:10.333Z,2.03
2023-05-23T13:30:36.935Z,2.22
2023-05-23T13:33:05.818Z,2.70
2023-05-23T13:35:34.829Z,2.25
2023-05-23T13:38:01.468Z,3.03
2023-05-23T13:40:28.023Z,2.30
2023-05-23T13:42:54.597Z,2.90
2023-05-23T13:45:23.166Z,2.40
2023-05-23T13:47:49.899Z,2.65
2023-05-23T13:50:21.849Z,2.53
2023-05-23T13:52:49.549Z,1.98
2023-05-23T13:57:46.101Z,2.30
2023-05-23T14:00:16.294Z,2.40
2023-05-23T14:02:44.959Z,2.30
2023-05-23T14:05:13.923Z,2.95
2023-05-23T14:07:41.255Z,2.80
2023-05-23T14:10:09.282Z,2.75
2023-05-23T14:12:38.150Z,1.92
2023-05-23T14:15:04.878Z,2.22
2023-05-23T14:17:33.888Z,2.08
2023-05-23T14:20:02.718Z,2.80
2023-05-23T14:22:31.593Z,2.40
2023-05-23T14:25:00.859Z,1.73
2023-05-23T14:27:32.553Z,2.65
2023-05-23T14:30:01.433Z,2.65
2023-05-23T14:32:28.006Z,2.03
2023-05-23T14:34:55.363Z,1.95
2023-05-23T14:37:21.928Z,2.10
2023-05-23T14:39:50.677Z,2.35
2023-05-23T14:42:17.212Z,1.73
2023-05-23T14:44:46.986Z,1.90
2023-05-23T14:47:13.464Z,2.03
2023-05-23T14:49:42.266Z,2.63
2023-05-23T14:52:08.936Z,1.88
2023-05-23T14:54:40.934Z,1.95
2023-05-23T14:57:10.109Z,2.50
2023-05-23T14:59:39.384Z,1.90
2023-05-23T15:02:11.634Z,1.63
2023-05-23T15:04:40.533Z,1.98
2023-05-23T15:07:09.609Z,2.30
2023-05-23T15:09:38.537Z,2.17
2023-05-23T15:12:09.731Z,2.20
2023-05-23T15:14:36.317Z,2.17
2023-05-23T15:17:08.217Z,1.88
2023-05-23T15:19:38.120Z,1.90
2023-05-23T15:22:07.634Z,2.00
2023-05-23T15:24:40.776Z,2.13
2023-05-23T15:27:20.059Z,1.83
2023-05-23T15:29:47.815Z,2.60
2023-05-23T15:32:16.797Z,2.83
2023-05-23T15:34:43.911Z,1.98
2023-05-23T15:37:11.366Z,2.37
2023-05-23T15:39:37.899Z,2.50
2023-05-23T15:42:06.816Z,2.70
2023-05-23T15:44:35.863Z,2.13
2023-05-23T15:47:02.452Z,2.20
2023-05-23T15:49:31.857Z,2.00
2023-05-23T15:52:01.047Z,2.33
2023-05-23T15:54:27.526Z,2.10
2023-05-23T15:56:59.120Z,1.85
2023-05-23T15:59:28.128Z,2.00
2023-05-23T16:01:57.215Z,2.60
2023-05-23T16:04:24.125Z,2.35
2023-05-23T16:06:51.057Z,2.50
2023-05-23T16:09:17.608Z,2.13
2023-05-23T16:11:44.127Z,1.95
2023-05-23T16:14:13.129Z,2.20
2023-05-23T16:16:42.101Z,2.50
2023-05-23T16:19:08.707Z,2.05
2023-05-23T16:21:37.805Z,1.67
2023-05-23T16:24:05.076Z,1.73
2023-05-23T16:26:31.588Z,2.80
2023-05-23T16:28:58.168Z,2.45
2023-05-23T16:31:30.426Z,1.85
2023-05-23T16:33:59.330Z,2.40
2023-05-23T16:36:30.679Z,2.50
2023-05-23T16:38:59.710Z,2.00
2023-05-23T16:41:26.367Z,2.60
2023-05-23T16:43:55.671Z,2.67
2023-05-23T16:46:24.428Z,1.92
2023-05-23T16:48:53.649Z,2.50
2023-05-23T16:51:20.252Z,2.53
2023-05-23T16:53:49.364Z,2.08
2023-05-23T16:56:18.349Z,2.20
2023-05-23T16:58:44.870Z,2.38
2023-05-23T17:01:13.936Z,1.70
2023-05-23T17:03:41.384Z,1.63
2023-05-23T17:06:08.140Z,1.77
2023-05-23T17:08:39.558Z,1.88
2023-05-23T17:11:06.086Z,2.00
2023-05-23T17:13:32.840Z,2.00
2023-05-23T17:16:01.759Z,2.30
2023-05-23T17:18:30.914Z,3.00
2023-05-23T17:20:59.865Z,1.42
2023-05-23T17:23:26.946Z,2.05
2023-05-23T17:25:54.389Z,1.63
2023-05-23T17:28:23.271Z,1.80
2023-05-23T17:30:51.643Z,1.95
2023-05-23T17:33:18.208Z,1.33
2023-05-23T17:35:44.914Z,1.60
2023-05-23T17:38:11.448Z,1.58
2023-05-23T17:40:38.078Z,1.90
2023-05-23T17:43:04.652Z,1.98
2023-05-23T17:45:31.506Z,2.00
2023-05-23T17:48:03.462Z,1.40
2023-05-23T17:50:32.765Z,2.63
2023-05-23T17:53:04.028Z,1.92
2023-05-23T17:55:30.870Z,2.33
2023-05-23T17:58:04.947Z,1.70
2023-05-23T18:00:36.074Z,1.77
2023-05-23T18:03:04.241Z,1.65
2023-05-23T18:05:30.846Z,2.25
2023-05-23T18:07:59.757Z,1.90
2023-05-23T18:10:28.824Z,1.85
2023-05-23T18:12:57.810Z,2.45
2023-05-23T18:15:30.154Z,2.30
2023-05-23T18:17:59.230Z,1.90
2023-05-23T18:20:25.817Z,1.90
2023-05-23T18:22:53.798Z,2.58
2023-05-23T18:27:49.519Z,1.70
2023-05-23T18:30:18.501Z,1.45
2023-05-23T18:32:45.153Z,1.70
2023-05-23T18:35:11.783Z,1.80
2023-05-23T18:37:38.878Z,1.58
2023-05-23T18:40:11.164Z,2.00
2023-05-23T18:42:40.318Z,1.92
2023-05-23T18:45:07.978Z,1.90
2023-05-23T18:47:37.288Z,2.30
2023-05-23T18:50:06.563Z,1.95
2023-05-23T18:52:37.284Z,1.60
2023-05-23T18:55:04.108Z,2.45
2023-05-23T18:57:33.204Z,1.92
2023-05-23T18:59:59.903Z,1.85
2023-05-23T19:02:26.978Z,1.67
2023-05-23T19:04:53.634Z,2.30
2023-05-23T19:07:22.464Z,1.73
2023-05-23T19:09:49.044Z,1.95
2023-05-23T19:12:18.972Z,2.25
2023-05-23T19:14:45.618Z,1.85
2023-05-23T19:17:12.113Z,1.92
2023-05-23T19:19:38.763Z,2.22
2023-05-23T19:22:07.856Z,2.05
2023-05-23T19:24:40.776Z,1.65
2023-05-23T19:27:07.385Z,1.92
2023-05-23T19:29:33.869Z,1.88
2023-05-23T19:32:00.576Z,2.00
2023-05-23T19:34:27.377Z,2.70
2023-05-23T19:36:56.705Z,1.80
2023-05-23T19:39:25.332Z,1.77
2023-05-23T19:41:51.839Z,2.33
2023-05-23T19:44:18.338Z,2.03
2023-05-23T19:46:49.411Z,2.25
2023-05-23T19:49:19.658Z,1.75
2023-05-23T19:51:46.341Z,2.45
2023-05-23T19:54:19.951Z,2.17
2023-05-23T19:56:49.244Z,2.08
2023-05-23T19:59:15.875Z,1.92
2023-05-23T20:01:42.503Z,2.22
2023-05-23T20:04:12.882Z,1.77
2023-05-23T20:06:42.246Z,2.00
2023-05-23T20:09:09.064Z,2.15
2023-05-23T20:11:38.092Z,1.90
2023-05-23T20:14:04.613Z,2.25
2023-05-23T20:16:31.536Z,2.40
2023-05-23T20:18:58.110Z,2.22
2023-05-23T20:21:24.675Z,2.33
2023-05-23T20:23:54.726Z,2.25
2023-05-23T20:26:26.895Z,2.35
2023-05-23T20:28:53.533Z,2.50
2023-05-23T20:31:20.198Z,1.85
2023-05-23T20:33:46.805Z,2.45
2023-05-23T20:36:13.760Z,2.50
2023-05-23T20:38:41.146Z,2.25
2023-05-23T20:41:09.996Z,2.10
2023-05-23T20:43:39.879Z,2.20
2023-05-23T20:46:11.859Z,2.22
2023-05-23T20:48:43.860Z,3.53
2023-05-23T20:51:13.554Z,2.28
2023-05-23T20:53:40.107Z,2.00
2023-05-23T20:56:10.194Z,1.83
2023-05-23T20:58:37.959Z,1.55
2023-05-23T21:01:06.935Z,2.05
2023-05-23T21:03:33.492Z,1.80
2023-05-23T21:06:00.007Z,2.08
2023-05-23T21:08:26.511Z,2.42
2023-05-23T21:10:54.704Z,1.60
2023-05-23T21:13:24.181Z,1.80
2023-05-23T21:15:51.023Z,1.95
2023-05-23T21:18:20.146Z,2.13
2023-05-23T21:20:50.790Z,2.00
2023-05-23T21:23:19.900Z,1.60
2023-05-23T21:25:46.482Z,2.10
2023-05-23T21:28:15.416Z,2.38
2023-05-23T21:30:42.442Z,2.13
2023-05-23T21:33:09.094Z,1.80
2023-05-23T21:35:37.862Z,1.77
2023-05-23T21:38:06.718Z,2.17
2023-05-23T21:40:33.203Z,1.70
2023-05-23T21:42:59.658Z,2.30
2023-05-23T21:45:26.190Z,2.25
2023-05-23T21:47:52.700Z,1.90
2023-05-23T21:50:19.233Z,1.92
2023-05-23T21:52:45.693Z,1.90
2023-05-23T21:55:12.183Z,1.85
2023-05-23T21:57:38.681Z,1.95
2023-05-23T22:00:12.979Z,1.98
2023-05-23T22:02:40.314Z,2.25
2023-05-23T22:05:13.136Z,1.95
2023-05-23T22:07:44.366Z,1.55
2023-05-23T22:10:13.225Z,2.08
2023-05-23T22:12:42.062Z,1.88
2023-05-23T22:15:09.120Z,2.17
2023-05-23T22:17:43.284Z,1.73
2023-05-23T22:20:10.470Z,1.60
2023-05-23T22:22:38.483Z,1.25
2023-05-23T22:25:09.112Z,1.48
2023-05-23T22:27:35.798Z,1.92
2023-05-23T22:30:02.477Z,1.95
2023-05-23T22:32:29.385Z,2.00
2023-05-23T22:34:58.643Z,2.10
2023-05-23T22:37:27.708Z,1.85
2023-05-23T22:39:54.174Z,1.52
2023-05-23T22:42:25.551Z,1.80
2023-05-23T22:44:52.482Z,1.48
2023-05-23T22:47:23.813Z,1.23
2023-05-23T22:49:53.985Z,1.48
2023-05-23T22:52:20.518Z,1.88
2023-05-23T22:54:49.201Z,2.03
2023-05-23T22:57:15.714Z,1.92
2023-05-23T22:59:44.795Z,1.70
2023-05-23T23:02:16.065Z,2.60
2023-05-23T23:04:44.224Z,1.67
2023-05-23T23:07:11.405Z,2.05
2023-05-23T23:09:37.952Z,2.13
2023-05-23T23:12:07.184Z,2.00
2023-05-23T23:14:35.910Z,1.88
2023-05-23T23:17:03.321Z,2.30
2023-05-23T23:19:29.861Z,1.95
2023-05-23T23:22:01.984Z,1.48
2023-05-23T23:24:28.505Z,2.13
2023-05-23T23:26:59.971Z,1.83
2023-05-23T23:29:28.813Z,1.92
2023-05-23T23:31:58.898Z,2.13
2023-05-23T23:34:26.338Z,1.70
2023-05-23T23:36:52.844Z,1.97
2023-05-23T23:39:21.676Z,1.70
2023-05-23T23:41:48.344Z,1.55
2023-05-23T23:44:17.409Z,1.73
2023-05-23T23:46:43.952Z,1.33
2023-05-23T23:49:10.621Z,1.85
2023-05-23T23:51:37.127Z,1.63
2023-05-23T23:54:03.677Z,1.60
2023-05-23T23:56:34.912Z,1.75
2023-05-23T23:59:01.531Z,1.65
